Terminal Aerodrome Forecast
Issued by NWS

Current Version | Previous Version | Text Only | Print | Product List | Glossary On
Versions: 1 2 3 4 5 6 7 8 9 10 11 12 13
000
FTUS44 KJAN 290900 AAA
TAFHKS
TAF AMD
KHKS 290942Z 2910/3006 00000KT P6SM BKN250
     FM291430 14006KT P6SM SCT040 SCT250
     FM292100 13007KT P6SM VCTS BKN050CB BKN250
     FM300100 15003KT P6SM OVC250=

USA.gov is the U.S. government's official web portal to all federal, state and local government web resources and services.